sensor_id;sensor_type;location;lat;lon;timestamp;pressure;altitude;pressure_sealevel;temperature;humidity
25080;BME280;13071;48.868;9.996;2023-05-12T00:01:32;96201.47;;;10.50;100.00
25080;BME280;13071;48.868;9.996;2023-05-12T00:03:59;96201.00;;;10.48;100.00
25080;BME280;13071;48.868;9.996;2023-05-12T00:06:27;96196.72;;;10.47;100.00
25080;BME280;13071;48.868;9.996;2023-05-12T00:08:53;96198.88;;;10.41;100.00
25080;BME280;13071;48.868;9.996;2023-05-12T00:11:20;96196.16;;;10.41;100.00
25080;BME280;13071;48.868;9.996;2023-05-12T00:13:47;96197.75;;;10.42;100.00
25080;BME280;13071;48.868;9.996;2023-05-12T00:16:13;96205.53;;;10.44;100.00
25080;BME280;13071;48.868;9.996;2023-05-12T00:18:43;96200.34;;;10.51;100.00
25080;BME280;13071;48.868;9.996;2023-05-12T00:21:09;96192.25;;;10.51;100.00
25080;BME280;13071;48.868;9.996;2023-05-12T00:23:38;96192.56;;;10.49;100.00
25080;BME280;13071;48.868;9.996;2023-05-12T00:26:04;96188.63;;;10.47;100.00
25080;BME280;13071;48.868;9.996;2023-05-12T00:28:31;96180.41;;;10.43;100.00
25080;BME280;13071;48.868;9.996;2023-05-12T00:31:00;96181.19;;;10.44;100.00
25080;BME280;13071;48.868;9.996;2023-05-12T00:33:27;96179.59;;;10.43;100.00
25080;BME280;13071;48.868;9.996;2023-05-12T00:35:53;96174.97;;;10.43;100.00
25080;BME280;13071;48.868;9.996;2023-05-12T00:38:20;96183.88;;;10.44;100.00
25080;BME280;13071;48.868;9.996;2023-05-12T00:40:48;96180.72;;;10.42;100.00
25080;BME280;13071;48.868;9.996;2023-05-12T00:43:15;96185.47;;;10.45;100.00
25080;BME280;13071;48.868;9.996;2023-05-12T00:45:42;96183.44;;;10.42;100.00
25080;BME280;13071;48.868;9.996;2023-05-12T00:48:09;96187.38;;;10.44;100.00
25080;BME280;13071;48.868;9.996;2023-05-12T00:50:35;96183.78;;;10.40;100.00
25080;BME280;13071;48.868;9.996;2023-05-12T00:53:03;96178.16;;;10.45;100.00
25080;BME280;13071;48.868;9.996;2023-05-12T00:55:29;96182.09;;;10.48;100.00
25080;BME280;13071;48.868;9.996;2023-05-12T00:57:58;96177.69;;;10.43;100.00
25080;BME280;13071;48.868;9.996;2023-05-12T01:00:24;96179.94;;;10.41;100.00
25080;BME280;13071;48.868;9.996;2023-05-12T01:02:51;96179.94;;;10.41;100.00
25080;BME280;13071;48.868;9.996;2023-05-12T01:05:18;96178.25;;;10.36;100.00
25080;BME280;13071;48.868;9.996;2023-05-12T01:07:45;96179.16;;;10.41;100.00
25080;BME280;13071;48.868;9.996;2023-05-12T01:10:16;96177.00;;;10.46;100.00
25080;BME280;13071;48.868;9.996;2023-05-12T01:12:43;96182.09;;;10.48;100.00
25080;BME280;13071;48.868;9.996;2023-05-12T01:15:11;96178.59;;;10.47;100.00
25080;BME280;13071;48.868;9.996;2023-05-12T01:17:41;96174.44;;;10.50;100.00
25080;BME280;13071;48.868;9.996;2023-05-12T01:20:11;96173.63;;;10.49;100.00
25080;BME280;13071;48.868;9.996;2023-05-12T01:22:41;96179.16;;;10.53;100.00
25080;BME280;13071;48.868;9.996;2023-05-12T01:25:09;96171.72;;;10.50;100.00
25080;BME280;13071;48.868;9.996;2023-05-12T01:27:39;96175.78;;;10.56;100.00
25080;BME280;13071;48.868;9.996;2023-05-12T01:30:07;96177.00;;;10.58;100.00
25080;BME280;13071;48.868;9.996;2023-05-12T01:32:34;96174.53;;;10.53;100.00
25080;BME280;13071;48.868;9.996;2023-05-12T01:35:01;96172.06;;;10.36;100.00
25080;BME280;13071;48.868;9.996;2023-05-12T01:37:28;96167.44;;;10.36;100.00
25080;BME280;13071;48.868;9.996;2023-05-12T01:39:54;96171.38;;;10.39;100.00
25080;BME280;13071;48.868;9.996;2023-05-12T01:42:21;96174.53;;;10.41;100.00
25080;BME280;13071;48.868;9.996;2023-05-12T01:44:49;96169.69;;;10.34;100.00
25080;BME280;13071;48.868;9.996;2023-05-12T01:47:15;96169.81;;;10.38;100.00
25080;BME280;13071;48.868;9.996;2023-05-12T01:49:42;96167.88;;;10.38;100.00
25080;BME280;13071;48.868;9.996;2023-05-12T01:52:09;96179.25;;;10.32;100.00
25080;BME280;13071;48.868;9.996;2023-05-12T01:54:36;96177.72;;;10.31;100.00
25080;BME280;13071;48.868;9.996;2023-05-12T01:57:03;96181.88;;;10.41;100.00
25080;BME280;13071;48.868;9.996;2023-05-12T01:59:30;96178.47;;;10.44;100.00
25080;BME280;13071;48.868;9.996;2023-05-12T02:01:58;96171.16;;;10.44;100.00
25080;BME280;13071;48.868;9.996;2023-05-12T02:04:24;96174.66;;;10.45;100.00
25080;BME280;13071;48.868;9.996;2023-05-12T02:06:51;96172.50;;;10.38;100.00
25080;BME280;13071;48.868;9.996;2023-05-12T02:09:18;96171.06;;;10.41;100.00
25080;BME280;13071;48.868;9.996;2023-05-12T02:11:45;96173.63;;;10.37;100.00
25080;BME280;13071;48.868;9.996;2023-05-12T02:14:12;96171.06;;;10.41;100.00
25080;BME280;13071;48.868;9.996;2023-05-12T02:16:38;96173.75;;;10.28;100.00
25080;BME280;13071;48.868;9.996;2023-05-12T02:19:06;96177.91;;;10.38;100.00
25080;BME280;13071;48.868;9.996;2023-05-12T02:21:33;96177.78;;;10.47;100.00
25080;BME280;13071;48.868;9.996;2023-05-12T02:23:59;96176.34;;;10.49;100.00
25080;BME280;13071;48.868;9.996;2023-05-12T02:26:26;96183.31;;;10.38;100.00
25080;BME280;13071;48.868;9.996;2023-05-12T02:28:52;96173.41;;;10.42;100.00
25080;BME280;13071;48.868;9.996;2023-05-12T02:31:19;96176.78;;;10.39;100.00
25080;BME280;13071;48.868;9.996;2023-05-12T02:33:45;96169.47;;;10.27;100.00
25080;BME280;13071;48.868;9.996;2023-05-12T02:36:14;96172.38;;;10.10;100.00
25080;BME280;13071;48.868;9.996;2023-05-12T02:38:40;96169.69;;;10.22;100.00
25080;BME280;13071;48.868;9.996;2023-05-12T02:41:07;96170.38;;;10.19;100.00
25080;BME280;13071;48.868;9.996;2023-05-12T02:43:33;96171.84;;;10.29;100.00
25080;BME280;13071;48.868;9.996;2023-05-12T02:46:00;96174.09;;;10.27;100.00
25080;BME280;13071;48.868;9.996;2023-05-12T02:48:27;96169.03;;;10.25;100.00
25080;BME280;13071;48.868;9.996;2023-05-12T02:50:53;96165.88;;;10.23;100.00
25080;BME280;13071;48.868;9.996;2023-05-12T02:53:21;96172.75;;;10.21;100.00
25080;BME280;13071;48.868;9.996;2023-05-12T02:55:48;96165.75;;;10.20;100.00
25080;BME280;13071;48.868;9.996;2023-05-12T02:58:15;96162.81;;;10.25;100.00
25080;BME280;13071;48.868;9.996;2023-05-12T03:00:41;96166.16;;;9.85;100.00
25080;BME280;13071;48.868;9.996;2023-05-12T03:03:08;96170.66;;;9.93;100.00
25080;BME280;13071;48.868;9.996;2023-05-12T03:05:35;96166.50;;;10.08;100.00
25080;BME280;13071;48.868;9.996;2023-05-12T03:08:01;96162.16;;;10.16;100.00
25080;BME280;13071;48.868;9.996;2023-05-12T03:10:29;96156.97;;;10.23;100.00
25080;BME280;13071;48.868;9.996;2023-05-12T03:12:56;96157.53;;;10.28;100.00
25080;BME280;13071;48.868;9.996;2023-05-12T03:15:22;96157.28;;;10.33;100.00
25080;BME280;13071;48.868;9.996;2023-05-12T03:17:49;96159.44;;;10.40;100.00
25080;BME280;13071;48.868;9.996;2023-05-12T03:20:16;96158.06;;;10.46;100.00
25080;BME280;13071;48.868;9.996;2023-05-12T03:22:43;96164.63;;;10.45;100.00
25080;BME280;13071;48.868;9.996;2023-05-12T03:25:09;96156.50;;;10.33;100.00
25080;BME280;13071;48.868;9.996;2023-05-12T03:27:38;96161.34;;;10.27;100.00
25080;BME280;13071;48.868;9.996;2023-05-12T03:30:06;96157.84;;;10.27;100.00
25080;BME280;13071;48.868;9.996;2023-05-12T03:32:32;96159.22;;;10.33;100.00
25080;BME280;13071;48.868;9.996;2023-05-12T03:34:59;96162.03;;;10.36;100.00
25080;BME280;13071;48.868;9.996;2023-05-12T03:37:25;96158.97;;;10.38;100.00
25080;BME280;13071;48.868;9.996;2023-05-12T03:39:52;96164.84;;;10.40;100.00
25080;BME280;13071;48.868;9.996;2023-05-12T03:42:20;96166.06;;;10.43;100.00
25080;BME280;13071;48.868;9.996;2023-05-12T03:44:49;96163.16;;;10.48;100.00
25080;BME280;13071;48.868;9.996;2023-05-12T03:47:16;96156.03;;;10.55;100.00
25080;BME280;13071;48.868;9.996;2023-05-12T03:49:42;96164.41;;;10.50;100.00
25080;BME280;13071;48.868;9.996;2023-05-12T03:52:09;96158.97;;;10.50;100.00
25080;BME280;13071;48.868;9.996;2023-05-12T03:54:36;96162.91;;;10.53;100.00
25080;BME280;13071;48.868;9.996;2023-05-12T03:57:03;96159.31;;;10.49;100.00
25080;BME280;13071;48.868;9.996;2023-05-12T03:59:30;96163.38;;;10.43;100.00
25080;BME280;13071;48.868;9.996;2023-05-12T04:01:58;96154.72;;;10.25;100.00
25080;BME280;13071;48.868;9.996;2023-05-12T04:04:24;96158.66;;;10.27;100.00
25080;BME280;13071;48.868;9.996;2023-05-12T04:06:51;96158.09;;;10.34;100.00
25080;BME280;13071;48.868;9.996;2023-05-12T04:09:18;96162.16;;;10.40;100.00
25080;BME280;13071;48.868;9.996;2023-05-12T04:11:45;96159.53;;;10.44;100.00
25080;BME280;13071;48.868;9.996;2023-05-12T04:14:12;96156.84;;;10.44;100.00
25080;BME280;13071;48.868;9.996;2023-05-12T04:16:38;96160.00;;;10.46;100.00
25080;BME280;13071;48.868;9.996;2023-05-12T04:19:06;96160.78;;;10.46;100.00
25080;BME280;13071;48.868;9.996;2023-05-12T04:21:33;96156.72;;;10.52;100.00
25080;BME280;13071;48.868;9.996;2023-05-12T04:23:59;96156.94;;;10.59;100.00
25080;BME280;13071;48.868;9.996;2023-05-12T04:26:26;96158.63;;;10.64;100.00
25080;BME280;13071;48.868;9.996;2023-05-12T04:28:53;96161.88;;;10.57;100.00
25080;BME280;13071;48.868;9.996;2023-05-12T04:31:19;96169.81;;;10.38;100.00
25080;BME280;13071;48.868;9.996;2023-05-12T04:33:46;96169.47;;;10.27;100.00
25080;BME280;13071;48.868;9.996;2023-05-12T04:36:14;96171.84;;;10.29;100.00
25080;BME280;13071;48.868;9.996;2023-05-12T04:38:40;96172.50;;;10.38;100.00
25080;BME280;13071;48.868;9.996;2023-05-12T04:41:07;96168.56;;;10.48;100.00
25080;BME280;13071;48.868;9.996;2023-05-12T04:43:34;96170.81;;;10.46;100.00
25080;BME280;13071;48.868;9.996;2023-05-12T04:46:00;96172.50;;;10.50;100.00
25080;BME280;13071;48.868;9.996;2023-05-12T04:48:27;96176.47;;;10.41;100.00
25080;BME280;13071;48.868;9.996;2023-05-12T04:50:54;96175.00;;;10.55;100.00
25080;BME280;13071;48.868;9.996;2023-05-12T04:53:22;96175.66;;;10.52;100.00
25080;BME280;13071;48.868;9.996;2023-05-12T04:55:48;96187.03;;;10.58;100.00
25080;BME280;13071;48.868;9.996;2023-05-12T04:58:15;96186.56;;;10.68;100.00
25080;BME280;13071;48.868;9.996;2023-05-12T05:00:42;96188.16;;;10.69;100.00
25080;BME280;13071;48.868;9.996;2023-05-12T05:03:09;96182.94;;;10.76;100.00
25080;BME280;13071;48.868;9.996;2023-05-12T05:05:35;96188.34;;;10.76;100.00
25080;BME280;13071;48.868;9.996;2023-05-12T05:08:02;96184.56;;;10.65;100.00
25080;BME280;13071;48.868;9.996;2023-05-12T05:10:30;96193.00;;;10.63;100.00
25080;BME280;13071;48.868;9.996;2023-05-12T05:12:56;96191.41;;;10.74;100.00
25080;BME280;13071;48.868;9.996;2023-05-12T05:15:23;96193.09;;;10.79;100.00
25080;BME280;13071;48.868;9.996;2023-05-12T05:17:49;96194.22;;;10.78;100.00
25080;BME280;13071;48.868;9.996;2023-05-12T05:20:16;96189.69;;;10.82;100.00
25080;BME280;13071;48.868;9.996;2023-05-12T05:22:43;96191.63;;;10.81;100.00
25080;BME280;13071;48.868;9.996;2023-05-12T05:25:10;96197.59;;;10.87;100.00
25080;BME280;13071;48.868;9.996;2023-05-12T05:27:39;96196.69;;;10.83;100.00
25080;BME280;13071;48.868;9.996;2023-05-12T05:30:07;96203.69;;;10.84;100.00
25080;BME280;13071;48.868;9.996;2023-05-12T05:32:34;96202.22;;;10.87;100.00
25080;BME280;13071;48.868;9.996;2023-05-12T05:35:01;96208.69;;;10.70;100.00
25080;BME280;13071;48.868;9.996;2023-05-12T05:37:28;96203.84;;;10.63;100.00
25080;BME280;13071;48.868;9.996;2023-05-12T05:39:55;96209.56;;;10.74;100.00
25080;BME280;13071;48.868;9.996;2023-05-12T05:42:22;96206.97;;;10.77;100.00
25080;BME280;13071;48.868;9.996;2023-05-12T05:44:50;96210.03;;;10.64;100.00
25080;BME280;13071;48.868;9.996;2023-05-12T05:47:16;96208.97;;;10.80;100.00
25080;BME280;13071;48.868;9.996;2023-05-12T05:49:43;96209.00;;;10.68;100.00
25080;BME280;13071;48.868;9.996;2023-05-12T05:52:10;96212.97;;;10.47;100.00
25080;BME280;13071;48.868;9.996;2023-05-12T05:54:36;96216.66;;;10.66;100.00
25080;BME280;13071;48.868;9.996;2023-05-12T05:57:03;96207.09;;;10.57;100.00
25080;BME280;13071;48.868;9.996;2023-05-12T05:59:30;96210.13;;;10.79;100.00
25080;BME280;13071;48.868;9.996;2023-05-12T06:01:58;96215.41;;;10.76;100.00
25080;BME280;13071;48.868;9.996;2023-05-12T06:04:25;96216.31;;;10.92;100.00
25080;BME280;13071;48.868;9.996;2023-05-12T06:06:51;96222.59;;;10.96;100.00
25080;BME280;13071;48.868;9.996;2023-05-12T06:09:18;96215.63;;;10.95;100.00
25080;BME280;13071;48.868;9.996;2023-05-12T06:11:45;96218.69;;;10.94;100.00
25080;BME280;13071;48.868;9.996;2023-05-12T06:14:11;96218.22;;;10.92;100.00
25080;BME280;13071;48.868;9.996;2023-05-12T06:16:38;96214.94;;;10.98;100.00
25080;BME280;13071;48.868;9.996;2023-05-12T06:19:06;96214.00;;;11.06;100.00
25080;BME280;13071;48.868;9.996;2023-05-12T06:21:33;96215.56;;;11.19;100.00
25080;BME280;13071;48.868;9.996;2023-05-12T06:24:00;96215.34;;;11.12;100.00
25080;BME280;13071;48.868;9.996;2023-05-12T06:26:26;96225.47;;;11.27;100.00
25080;BME280;13071;48.868;9.996;2023-05-12T06:28:53;96223.50;;;11.40;100.00
25080;BME280;13071;48.868;9.996;2023-05-12T06:31:20;96221.09;;;11.51;100.00
25080;BME280;13071;48.868;9.996;2023-05-12T06:33:47;96226.16;;;11.52;100.00
25080;BME280;13071;48.868;9.996;2023-05-12T06:36:15;96224.34;;;11.56;100.00
25080;BME280;13071;48.868;9.996;2023-05-12T06:38:41;96228.94;;;11.68;100.00
25080;BME280;13071;48.868;9.996;2023-05-12T06:41:08;96229.13;;;11.75;100.00
25080;BME280;13071;48.868;9.996;2023-05-12T06:43:34;96226.53;;;11.79;100.00
25080;BME280;13071;48.868;9.996;2023-05-12T06:46:01;96219.91;;;11.92;100.00
25080;BME280;13071;48.868;9.996;2023-05-12T06:48:28;96226.94;;;12.08;100.00
25080;BME280;13071;48.868;9.996;2023-05-12T06:50:54;96223.78;;;12.06;100.00
25080;BME280;13071;48.868;9.996;2023-05-12T06:53:22;96230.41;;;11.93;100.00
25080;BME280;13071;48.868;9.996;2023-05-12T06:55:49;96224.38;;;11.72;100.00
25080;BME280;13071;48.868;9.996;2023-05-12T06:58:17;96227.91;;;11.73;100.00
25080;BME280;13071;48.868;9.996;2023-05-12T07:00:46;96228.22;;;11.71;100.00
25080;BME280;13071;48.868;9.996;2023-05-12T07:03:13;96230.75;;;11.92;100.00
25080;BME280;13071;48.868;9.996;2023-05-12T07:05:39;96223.94;;;11.98;100.00
25080;BME280;13071;48.868;9.996;2023-05-12T07:08:06;96234.09;;;12.01;100.00
25080;BME280;13071;48.868;9.996;2023-05-12T07:10:34;96233.75;;;12.02;100.00
25080;BME280;13071;48.868;9.996;2023-05-12T07:13:02;96228.59;;;12.13;100.00
25080;BME280;13071;48.868;9.996;2023-05-12T07:15:28;96224.56;;;12.38;100.00
25080;BME280;13071;48.868;9.996;2023-05-12T07:17:55;96217.66;;;12.57;100.00
25080;BME280;13071;48.868;9.996;2023-05-12T07:20:22;96225.81;;;12.91;98.51
25080;BME280;13071;48.868;9.996;2023-05-12T07:22:48;96224.25;;;13.25;97.28
25080;BME280;13071;48.868;9.996;2023-05-12T07:25:16;96221.94;;;13.27;96.68
25080;BME280;13071;48.868;9.996;2023-05-12T07:27:44;96223.88;;;12.92;96.93
25080;BME280;13071;48.868;9.996;2023-05-12T07:30:11;96223.94;;;13.11;94.63
25080;BME280;13071;48.868;9.996;2023-05-12T07:32:38;96217.41;;;13.31;94.39
25080;BME280;13071;48.868;9.996;2023-05-12T07:35:05;96217.53;;;13.38;94.81
25080;BME280;13071;48.868;9.996;2023-05-12T07:37:31;96219.75;;;13.33;94.84
25080;BME280;13071;48.868;9.996;2023-05-12T07:39:58;96218.25;;;13.35;95.49
25080;BME280;13071;48.868;9.996;2023-05-12T07:42:25;96220.97;;;13.16;94.35
25080;BME280;13071;48.868;9.996;2023-05-12T07:44:53;96217.19;;;12.70;96.30
25080;BME280;13071;48.868;9.996;2023-05-12T07:47:19;96217.97;;;12.71;97.13
25080;BME280;13071;48.868;9.996;2023-05-12T07:49:46;96219.56;;;12.72;98.22
25080;BME280;13071;48.868;9.996;2023-05-12T07:52:12;96223.94;;;12.61;99.26
25080;BME280;13071;48.868;9.996;2023-05-12T07:54:39;96216.38;;;12.70;98.10
25080;BME280;13071;48.868;9.996;2023-05-12T07:57:05;96223.75;;;12.53;96.81
25080;BME280;13071;48.868;9.996;2023-05-12T07:59:32;96232.19;;;12.33;98.20
25080;BME280;13071;48.868;9.996;2023-05-12T08:02:00;96227.78;;;12.44;99.92
25080;BME280;13071;48.868;9.996;2023-05-12T08:04:27;96227.63;;;12.37;100.00
25080;BME280;13071;48.868;9.996;2023-05-12T08:06:53;96232.16;;;12.48;98.79
25080;BME280;13071;48.868;9.996;2023-05-12T08:09:20;96226.38;;;12.81;96.64
25080;BME280;13071;48.868;9.996;2023-05-12T08:11:46;96231.59;;;12.90;95.63
25080;BME280;13071;48.868;9.996;2023-05-12T08:14:14;96228.28;;;12.81;97.88
25080;BME280;13071;48.868;9.996;2023-05-12T08:16:42;96236.09;;;12.82;95.76
25080;BME280;13071;48.868;9.996;2023-05-12T08:19:11;96231.22;;;12.57;96.44
25080;BME280;13071;48.868;9.996;2023-05-12T08:21:38;96226.16;;;12.90;96.97
25080;BME280;13071;48.868;9.996;2023-05-12T08:24:04;96222.09;;;12.99;96.23
25080;BME280;13071;48.868;9.996;2023-05-12T08:26:31;96231.38;;;12.98;99.16
25080;BME280;13071;48.868;9.996;2023-05-12T08:28:57;96224.88;;;13.03;100.00
25080;BME280;13071;48.868;9.996;2023-05-12T08:31:24;96225.03;;;13.26;99.13
25080;BME280;13071;48.868;9.996;2023-05-12T08:33:51;96232.53;;;13.32;95.27
25080;BME280;13071;48.868;9.996;2023-05-12T08:36:18;96232.69;;;13.39;93.35
25080;BME280;13071;48.868;9.996;2023-05-12T08:38:45;96232.47;;;12.94;95.79
25080;BME280;13071;48.868;9.996;2023-05-12T08:41:15;96228.16;;;13.28;93.57
25080;BME280;13071;48.868;9.996;2023-05-12T08:43:45;96228.84;;;13.40;95.50
25080;BME280;13071;48.868;9.996;2023-05-12T08:46:13;96224.31;;;13.67;94.33
25080;BME280;13071;48.868;9.996;2023-05-12T08:48:41;96219.25;;;14.08;94.68
25080;BME280;13071;48.868;9.996;2023-05-12T08:51:09;96228.56;;;14.30;90.50
25080;BME280;13071;48.868;9.996;2023-05-12T08:53:39;96227.91;;;14.13;88.04
25080;BME280;13071;48.868;9.996;2023-05-12T08:56:07;96233.88;;;14.00;90.93
25080;BME280;13071;48.868;9.996;2023-05-12T08:58:35;96232.34;;;14.02;91.53
25080;BME280;13071;48.868;9.996;2023-05-12T09:01:03;96235.31;;;14.58;88.26
25080;BME280;13071;48.868;9.996;2023-05-12T09:03:30;96235.22;;;14.32;87.72
25080;BME280;13071;48.868;9.996;2023-05-12T09:05:57;96236.19;;;14.20;88.51
25080;BME280;13071;48.868;9.996;2023-05-12T09:08:25;96231.00;;;14.35;89.04
25080;BME280;13071;48.868;9.996;2023-05-12T09:10:55;96232.22;;;14.60;87.16
25080;BME280;13071;48.868;9.996;2023-05-12T09:13:26;96237.78;;;14.67;87.55
25080;BME280;13071;48.868;9.996;2023-05-12T09:15:54;96237.06;;;14.47;86.47
25080;BME280;13071;48.868;9.996;2023-05-12T09:18:23;96236.84;;;13.91;85.04
25080;BME280;13071;48.868;9.996;2023-05-12T09:20:49;96240.47;;;14.21;87.39
25080;BME280;13071;48.868;9.996;2023-05-12T09:23:17;96236.41;;;14.54;87.25
25080;BME280;13071;48.868;9.996;2023-05-12T09:25:44;96239.34;;;14.68;85.00
25080;BME280;13071;48.868;9.996;2023-05-12T09:28:13;96243.22;;;14.67;84.80
25080;BME280;13071;48.868;9.996;2023-05-12T09:30:40;96238.91;;;14.66;84.48
25080;BME280;13071;48.868;9.996;2023-05-12T09:33:07;96240.09;;;14.65;84.69
25080;BME280;13071;48.868;9.996;2023-05-12T09:35:38;96242.94;;;14.76;82.71
25080;BME280;13071;48.868;9.996;2023-05-12T09:38:06;96243.06;;;14.83;84.14
25080;BME280;13071;48.868;9.996;2023-05-12T09:40:33;96248.22;;;14.88;83.13
25080;BME280;13071;48.868;9.996;2023-05-12T09:43:01;96241.31;;;14.71;83.53
25080;BME280;13071;48.868;9.996;2023-05-12T09:45:32;96239.72;;;14.93;80.23
25080;BME280;13071;48.868;9.996;2023-05-12T09:48:06;96244.25;;;14.36;82.51
25080;BME280;13071;48.868;9.996;2023-05-12T09:50:32;96239.44;;;14.49;81.79
25080;BME280;13071;48.868;9.996;2023-05-12T09:52:59;96248.41;;;14.76;81.84
25080;BME280;13071;48.868;9.996;2023-05-12T09:55:26;96243.16;;;14.63;81.50
25080;BME280;13071;48.868;9.996;2023-05-12T09:57:53;96239.53;;;14.56;81.72
25080;BME280;13071;48.868;9.996;2023-05-12T10:00:21;96247.81;;;14.63;82.34
25080;BME280;13071;48.868;9.996;2023-05-12T10:02:49;96246.94;;;14.82;81.45
25080;BME280;13071;48.868;9.996;2023-05-12T10:05:19;96251.78;;;14.92;82.93
25080;BME280;13071;48.868;9.996;2023-05-12T10:07:47;96248.38;;;14.98;81.30
25080;BME280;13071;48.868;9.996;2023-05-12T10:10:18;96245.81;;;15.09;82.18
25080;BME280;13071;48.868;9.996;2023-05-12T10:12:45;96244.59;;;15.06;80.97
25080;BME280;13071;48.868;9.996;2023-05-12T10:15:13;96252.34;;;14.78;82.65
25080;BME280;13071;48.868;9.996;2023-05-12T10:17:41;96250.25;;;14.94;82.18
25080;BME280;13071;48.868;9.996;2023-05-12T10:20:10;96249.34;;;14.87;81.70
25080;BME280;13071;48.868;9.996;2023-05-12T10:22:38;96243.75;;;15.02;82.84
25080;BME280;13071;48.868;9.996;2023-05-12T10:25:07;96253.00;;;14.94;83.87
25080;BME280;13071;48.868;9.996;2023-05-12T10:27:34;96255.75;;;14.98;82.43
25080;BME280;13071;48.868;9.996;2023-05-12T10:30:02;96251.50;;;15.00;80.10
25080;BME280;13071;48.868;9.996;2023-05-12T10:32:29;96256.25;;;14.81;80.17
25080;BME280;13071;48.868;9.996;2023-05-12T10:35:06;96261.22;;;14.75;80.06
25080;BME280;13071;48.868;9.996;2023-05-12T10:37:35;96262.63;;;14.88;78.42
25080;BME280;13071;48.868;9.996;2023-05-12T10:40:02;96261.38;;;14.59;79.76
25080;BME280;13071;48.868;9.996;2023-05-12T10:42:36;96262.41;;;14.51;84.54
25080;BME280;13071;48.868;9.996;2023-05-12T10:45:14;96265.16;;;14.32;81.94
25080;BME280;13071;48.868;9.996;2023-05-12T10:47:42;96259.16;;;14.42;81.20
25080;BME280;13071;48.868;9.996;2023-05-12T10:50:09;96254.00;;;14.37;83.73
25080;BME280;13071;48.868;9.996;2023-05-12T10:52:39;96257.19;;;14.20;81.49
25080;BME280;13071;48.868;9.996;2023-05-12T10:55:11;96259.75;;;13.90;82.87
25080;BME280;13071;48.868;9.996;2023-05-12T10:57:48;96260.16;;;13.92;82.34
25080;BME280;13071;48.868;9.996;2023-05-12T11:00:23;96268.75;;;13.75;84.64
25080;BME280;13071;48.868;9.996;2023-05-12T11:02:52;96268.03;;;13.59;84.77
25080;BME280;13071;48.868;9.996;2023-05-12T11:05:18;96275.56;;;13.65;83.89
25080;BME280;13071;48.868;9.996;2023-05-12T11:07:48;96268.91;;;13.63;85.54
25080;BME280;13071;48.868;9.996;2023-05-12T11:10:15;96274.03;;;13.49;88.82
25080;BME280;13071;48.868;9.996;2023-05-12T11:12:42;96275.88;;;13.25;88.69
25080;BME280;13071;48.868;9.996;2023-05-12T11:15:10;96274.38;;;13.47;87.61
25080;BME280;13071;48.868;9.996;2023-05-12T11:17:38;96273.19;;;13.45;87.29
25080;BME280;13071;48.868;9.996;2023-05-12T11:20:06;96272.59;;;13.35;88.31
25080;BME280;13071;48.868;9.996;2023-05-12T11:22:33;96284.28;;;13.36;89.62
25080;BME280;13071;48.868;9.996;2023-05-12T11:25:09;96283.19;;;13.21;89.92
25080;BME280;13071;48.868;9.996;2023-05-12T11:27:36;96279.13;;;13.31;89.26
25080;BME280;13071;48.868;9.996;2023-05-12T11:30:07;96277.47;;;13.26;88.63
25080;BME280;13071;48.868;9.996;2023-05-12T11:32:35;96281.94;;;13.19;89.91
25080;BME280;13071;48.868;9.996;2023-05-12T11:35:11;96283.44;;;13.01;91.12
25080;BME280;13071;48.868;9.996;2023-05-12T11:37:39;96286.72;;;12.75;95.07
25080;BME280;13071;48.868;9.996;2023-05-12T11:40:19;96290.13;;;12.87;93.45
25080;BME280;13071;48.868;9.996;2023-05-12T11:42:47;96287.75;;;12.86;93.32
25080;BME280;13071;48.868;9.996;2023-05-12T11:45:20;96282.00;;;12.87;92.70
25080;BME280;13071;48.868;9.996;2023-05-12T11:47:47;96295.97;;;12.89;94.10
25080;BME280;13071;48.868;9.996;2023-05-12T11:50:22;96296.69;;;13.02;94.44
25080;BME280;13071;48.868;9.996;2023-05-12T11:52:50;96295.09;;;13.17;91.61
25080;BME280;13071;48.868;9.996;2023-05-12T11:55:24;96298.47;;;13.29;87.69
25080;BME280;13071;48.868;9.996;2023-05-12T11:57:59;96297.69;;;13.29;87.95
25080;BME280;13071;48.868;9.996;2023-05-12T12:00:27;96301.75;;;13.54;86.90
25080;BME280;13071;48.868;9.996;2023-05-12T12:03:07;96306.16;;;13.62;87.50
25080;BME280;13071;48.868;9.996;2023-05-12T12:05:35;96302.66;;;13.62;86.01
25080;BME280;13071;48.868;9.996;2023-05-12T12:08:07;96308.31;;;13.53;88.05
25080;BME280;13071;48.868;9.996;2023-05-12T12:10:35;96306.63;;;13.64;86.19
25080;BME280;13071;48.868;9.996;2023-05-12T12:13:02;96309.81;;;13.51;87.54
25080;BME280;13071;48.868;9.996;2023-05-12T12:15:29;96316.06;;;13.51;88.25
25080;BME280;13071;48.868;9.996;2023-05-12T12:17:55;96316.72;;;13.29;87.66
25080;BME280;13071;48.868;9.996;2023-05-12T12:20:22;96318.31;;;13.30;89.12
25080;BME280;13071;48.868;9.996;2023-05-12T12:22:50;96305.50;;;13.30;87.68
25080;BME280;13071;48.868;9.996;2023-05-12T12:25:17;96319.16;;;13.34;89.88
25080;BME280;13071;48.868;9.996;2023-05-12T12:27:46;96316.97;;;13.08;91.68
25080;BME280;13071;48.868;9.996;2023-05-12T12:30:13;96317.06;;;13.27;92.04
25080;BME280;13071;48.868;9.996;2023-05-12T12:32:41;96313.34;;;13.51;90.46
25080;BME280;13071;48.868;9.996;2023-05-12T12:35:08;96294.69;;;13.34;90.47
25080;BME280;13071;48.868;9.996;2023-05-12T12:37:35;96321.84;;;13.69;87.63
25080;BME280;13071;48.868;9.996;2023-05-12T12:40:03;96311.63;;;13.62;90.62
25080;BME280;13071;48.868;9.996;2023-05-12T12:42:33;96312.69;;;13.77;87.25
25080;BME280;13071;48.868;9.996;2023-05-12T12:45:01;96319.41;;;13.45;88.65
25080;BME280;13071;48.868;9.996;2023-05-12T12:47:28;96317.72;;;13.56;89.98
25080;BME280;13071;48.868;9.996;2023-05-12T12:49:54;96318.34;;;13.49;91.05
25080;BME280;13071;48.868;9.996;2023-05-12T12:52:21;96310.94;;;13.30;88.72
25080;BME280;13071;48.868;9.996;2023-05-12T12:54:48;96324.38;;;13.43;90.02
25080;BME280;13071;48.868;9.996;2023-05-12T12:57:15;96322.22;;;13.32;88.25